createdAt,value
2023-04-20T00:01:38.161Z,38.39
2023-04-20T00:04:04.250Z,38.48
2023-04-20T00:06:31.526Z,38.14
2023-04-20T00:08:57.186Z,38.41
2023-04-20T00:11:22.856Z,38.40
2023-04-20T00:13:48.545Z,38.47
2023-04-20T00:16:14.246Z,38.62
2023-04-20T00:18:39.926Z,38.32
2023-04-20T00:21:05.639Z,38.26
2023-04-20T00:23:31.324Z,38.86
2023-04-20T00:25:57.032Z,38.38
2023-04-20T00:28:22.729Z,38.26
2023-04-20T00:30:48.429Z,38.20
2023-04-20T00:33:14.077Z,38.41
2023-04-20T00:35:39.743Z,38.30
2023-04-20T00:38:05.407Z,38.22
2023-04-20T00:40:31.084Z,38.46
2023-04-20T00:42:56.758Z,38.28
2023-04-20T00:45:22.455Z,38.11
2023-04-20T00:47:48.390Z,38.51
2023-04-20T00:50:14.785Z,38.77
2023-04-20T00:52:40.969Z,38.84
2023-04-20T00:55:06.831Z,38.19
2023-04-20T00:57:32.498Z,38.36
2023-04-20T00:59:58.128Z,38.39
2023-04-20T01:02:23.880Z,38.79
2023-04-20T01:04:49.620Z,38.13
2023-04-20T01:07:15.357Z,38.22
2023-04-20T01:09:42.126Z,38.37
2023-04-20T01:12:08.950Z,38.31
2023-04-20T01:14:34.602Z,38.25
2023-04-20T01:17:00.248Z,38.37
2023-04-20T01:19:25.954Z,38.89
2023-04-20T01:21:51.935Z,39.11
2023-04-20T01:24:17.607Z,38.83
2023-04-20T01:26:43.259Z,38.64
2023-04-20T01:29:08.920Z,39.05
2023-04-20T01:31:34.607Z,39.36
2023-04-20T01:34:00.509Z,38.46
2023-04-20T01:36:26.283Z,38.68
2023-04-20T01:38:51.988Z,39.08
2023-04-20T01:41:17.663Z,38.39
2023-04-20T01:43:43.334Z,38.32
2023-04-20T01:46:09.203Z,38.61
2023-04-20T01:48:35.020Z,38.47
2023-04-20T01:51:00.694Z,38.15
2023-04-20T01:53:26.367Z,39.11
2023-04-20T01:55:52.047Z,39.04
2023-04-20T01:58:17.690Z,38.83
2023-04-20T02:00:43.688Z,39.37
2023-04-20T02:03:09.459Z,38.82
2023-04-20T02:05:35.194Z,38.45
2023-04-20T02:08:00.858Z,38.68
2023-04-20T02:10:26.564Z,38.28
2023-04-20T02:12:52.228Z,38.75
2023-04-20T02:15:17.969Z,38.86
2023-04-20T02:17:44.433Z,39.13
2023-04-20T02:20:10.442Z,38.70
2023-04-20T02:22:36.797Z,39.05
2023-04-20T02:25:04.092Z,38.70
2023-04-20T02:27:30.806Z,38.69
2023-04-20T02:29:56.454Z,38.49
2023-04-20T02:32:22.318Z,38.54
2023-04-20T02:34:47.978Z,38.70
2023-04-20T02:37:13.630Z,38.75
2023-04-20T02:39:39.339Z,38.65
2023-04-20T02:42:05.362Z,38.94
2023-04-20T02:44:31.008Z,38.70
2023-04-20T02:46:56.734Z,38.10
2023-04-20T02:49:22.648Z,39.00
2023-04-20T02:51:48.392Z,38.57
2023-04-20T02:54:14.115Z,38.49
2023-04-20T02:56:39.803Z,38.56
2023-04-20T02:59:05.924Z,38.44
2023-04-20T03:01:31.616Z,38.25
2023-04-20T03:03:57.416Z,38.20
2023-04-20T03:06:23.189Z,38.53
2023-04-20T03:08:48.855Z,38.80
2023-04-20T03:11:15.090Z,38.23
2023-04-20T03:13:40.875Z,38.90
2023-04-20T03:16:06.737Z,38.32
2023-04-20T03:18:32.721Z,38.48
2023-04-20T03:20:58.384Z,38.28
2023-04-20T03:23:24.035Z,38.42
2023-04-20T03:25:49.846Z,38.39
2023-04-20T03:28:15.543Z,38.53
2023-04-20T03:30:41.374Z,38.86
2023-04-20T03:33:07.039Z,38.69
2023-04-20T03:35:32.741Z,38.83
2023-04-20T03:37:58.393Z,38.67
2023-04-20T03:40:24.189Z,39.05
2023-04-20T03:42:49.888Z,38.43
2023-04-20T03:45:17.060Z,39.02
2023-04-20T03:47:42.752Z,38.41
2023-04-20T03:50:08.727Z,38.26
2023-04-20T03:52:34.515Z,38.35
2023-04-20T03:55:00.151Z,38.84
2023-04-20T03:57:25.875Z,38.64
2023-04-20T03:59:51.525Z,38.97
2023-04-20T04:02:17.604Z,38.43
2023-04-20T04:04:44.460Z,38.81
2023-04-20T04:07:10.381Z,38.65
2023-04-20T04:09:36.055Z,38.43
2023-04-20T04:12:03.764Z,38.69
2023-04-20T04:14:29.466Z,38.48
2023-04-20T04:16:55.365Z,38.68
2023-04-20T04:19:21.062Z,38.90
2023-04-20T04:21:46.767Z,38.61
2023-04-20T04:24:12.410Z,38.66
2023-04-20T04:26:38.066Z,38.59
2023-04-20T04:29:03.783Z,38.38
2023-04-20T04:31:32.059Z,38.77
2023-04-20T04:33:57.700Z,38.68
2023-04-20T04:36:26.137Z,38.43
2023-04-20T04:38:51.984Z,38.47
2023-04-20T04:41:17.990Z,38.47
2023-04-20T04:43:44.044Z,38.45
2023-04-20T04:46:10.645Z,38.24
2023-04-20T04:48:36.963Z,38.62
2023-04-20T04:51:03.353Z,38.30
2023-04-20T04:53:29.077Z,39.46
2023-04-20T04:55:54.823Z,38.77
2023-04-20T04:58:20.452Z,38.64
2023-04-20T05:00:46.133Z,38.41
2023-04-20T05:03:11.923Z,38.57
2023-04-20T05:05:37.671Z,38.21
2023-04-20T05:08:03.421Z,38.53
2023-04-20T05:10:29.130Z,38.85
2023-04-20T05:12:54.877Z,38.67
2023-04-20T05:15:20.586Z,38.43
2023-04-20T05:17:48.756Z,38.81
2023-04-20T05:20:14.721Z,39.32
2023-04-20T05:22:40.576Z,39.44
2023-04-20T05:25:06.605Z,39.92
2023-04-20T05:27:32.979Z,39.94
2023-04-20T05:30:12.733Z,39.87
2023-04-20T05:32:42.758Z,39.44
2023-04-20T05:35:08.518Z,38.92
2023-04-20T05:37:34.179Z,39.94
2023-04-20T05:39:59.999Z,39.54
2023-04-20T05:42:25.642Z,39.75
2023-04-20T05:44:51.409Z,39.94
2023-04-20T05:47:17.077Z,39.86
2023-04-20T05:49:44.623Z,39.95
2023-04-20T05:52:10.308Z,39.96
2023-04-20T05:54:36.182Z,39.87
2023-04-20T05:57:02.115Z,39.80
2023-04-20T05:59:27.824Z,39.44
2023-04-20T06:01:53.551Z,40.05
2023-04-20T06:04:19.514Z,39.65
2023-04-20T06:06:45.381Z,39.63
2023-04-20T06:09:11.186Z,38.40
2023-04-20T06:11:36.847Z,38.75
2023-04-20T06:14:02.491Z,39.55
2023-04-20T06:16:28.264Z,39.35
2023-04-20T06:18:54.131Z,39.37
2023-04-20T06:21:20.040Z,39.83
2023-04-20T06:23:45.809Z,39.70
2023-04-20T06:26:11.461Z,39.60
2023-04-20T06:28:37.460Z,39.48
2023-04-20T06:31:03.552Z,39.59
2023-04-20T06:33:29.332Z,39.93
2023-04-20T06:35:55.857Z,39.39
2023-04-20T06:38:23.022Z,39.52
2023-04-20T06:40:48.776Z,39.52
2023-04-20T06:43:14.501Z,39.47
2023-04-20T06:45:40.182Z,39.32
2023-04-20T06:48:09.947Z,39.36
2023-04-20T06:50:40.046Z,39.52
2023-04-20T06:53:05.839Z,39.16
2023-04-20T06:55:31.544Z,39.07
2023-04-20T06:57:57.207Z,38.54
2023-04-20T07:00:22.977Z,38.92
2023-04-20T07:02:49.766Z,38.67
2023-04-20T07:05:16.473Z,38.52
2023-04-20T07:07:42.413Z,39.37
2023-04-20T07:10:09.280Z,39.25
2023-04-20T07:12:36.131Z,39.45
2023-04-20T07:15:03.351Z,39.58
2023-04-20T07:17:29.020Z,39.51
2023-04-20T07:19:55.525Z,38.90
2023-04-20T07:22:21.800Z,39.73
2023-04-20T07:24:47.437Z,39.72
2023-04-20T07:27:13.142Z,39.82
2023-04-20T07:29:38.864Z,40.04
2023-04-20T07:32:04.882Z,39.17
2023-04-20T07:34:30.861Z,39.70
2023-04-20T07:36:56.522Z,39.71
2023-04-20T07:39:24.403Z,39.69
2023-04-20T07:41:50.056Z,39.97
2023-04-20T07:44:15.717Z,39.95
2023-04-20T07:46:41.433Z,39.92
2023-04-20T07:49:07.103Z,39.64
2023-04-20T07:51:33.560Z,39.69
2023-04-20T07:53:59.525Z,39.73
2023-04-20T07:56:25.250Z,39.71
2023-04-20T07:58:50.939Z,39.44
2023-04-20T08:01:16.605Z,39.90
2023-04-20T08:03:42.454Z,39.26
2023-04-20T08:06:09.137Z,39.85
2023-04-20T08:08:35.436Z,39.92
2023-04-20T08:11:01.138Z,39.52
2023-04-20T08:13:27.571Z,39.12
2023-04-20T08:15:53.388Z,38.49
2023-04-20T08:18:21.200Z,38.11
2023-04-20T08:20:47.137Z,38.33
2023-04-20T08:23:13.441Z,38.15
2023-04-20T08:25:40.234Z,38.12
2023-04-20T08:28:08.745Z,37.78
2023-04-20T08:30:40.317Z,38.07
2023-04-20T08:33:06.007Z,38.36
2023-04-20T08:35:32.026Z,37.64
2023-04-20T08:37:57.708Z,37.70
2023-04-20T08:40:24.350Z,36.94
2023-04-20T08:42:50.188Z,37.04
2023-04-20T08:45:15.919Z,37.36
2023-04-20T08:47:41.789Z,37.47
2023-04-20T08:50:08.671Z,36.93
2023-04-20T08:52:34.873Z,37.14
2023-04-20T08:55:00.634Z,37.06
2023-04-20T08:57:26.538Z,38.01
2023-04-20T08:59:52.671Z,37.97
2023-04-20T09:02:18.407Z,38.14
2023-04-20T09:04:48.031Z,38.38
2023-04-20T09:07:21.175Z,38.20
2023-04-20T09:09:55.491Z,37.83
2023-04-20T09:12:22.758Z,37.82
2023-04-20T09:14:48.691Z,38.06
2023-04-20T09:17:15.307Z,38.12
2023-04-20T09:19:43.922Z,38.09
2023-04-20T09:22:09.621Z,38.36
2023-04-20T09:24:36.932Z,38.08
2023-04-20T09:27:14.978Z,38.61
2023-04-20T09:29:40.702Z,38.08
2023-04-20T09:32:06.398Z,38.80
2023-04-20T09:34:43.240Z,38.99
2023-04-20T09:37:10.065Z,38.77
2023-04-20T09:39:36.461Z,39.24
2023-04-20T09:42:04.613Z,39.45
2023-04-20T09:44:31.683Z,39.10
2023-04-20T09:46:57.702Z,39.08
2023-04-20T09:49:23.366Z,38.72
2023-04-20T09:51:49.181Z,38.70
2023-04-20T09:54:15.277Z,38.66
2023-04-20T09:56:41.375Z,39.46
2023-04-20T09:59:07.352Z,39.91
2023-04-20T10:01:35.175Z,38.79
2023-04-20T10:04:06.724Z,39.20
2023-04-20T10:06:34.447Z,38.60
2023-04-20T10:09:04.647Z,37.76
2023-04-20T10:11:49.094Z,37.81
2023-04-20T10:14:22.680Z,37.78
2023-04-20T10:17:06.385Z,38.34
2023-04-20T10:19:40.066Z,38.21
2023-04-20T10:22:06.832Z,38.69
2023-04-20T10:24:32.574Z,38.22
2023-04-20T10:26:58.356Z,38.58
2023-04-20T10:29:25.218Z,38.59
2023-04-20T10:31:51.118Z,38.70
2023-04-20T10:34:18.106Z,38.79
2023-04-20T10:36:44.294Z,38.88
2023-04-20T10:39:17.989Z,38.44
2023-04-20T10:42:01.241Z,38.89
2023-04-20T10:44:27.256Z,38.75
2023-04-20T10:46:53.864Z,38.42
2023-04-20T10:49:25.386Z,38.29
2023-04-20T10:51:52.206Z,38.28
2023-04-20T10:54:18.533Z,38.06
2023-04-20T10:56:47.158Z,38.29
2023-04-20T10:59:14.948Z,38.05
2023-04-20T11:01:41.073Z,38.01
2023-04-20T11:04:07.705Z,38.27
2023-04-20T11:06:34.954Z,38.10
2023-04-20T11:09:00.694Z,38.15
2023-04-20T11:11:27.466Z,38.05
2023-04-20T11:14:09.001Z,37.68
2023-04-20T11:16:47.951Z,37.69
2023-04-20T11:19:23.067Z,37.28
2023-04-20T11:21:48.791Z,37.64
2023-04-20T11:24:19.815Z,38.54
2023-04-20T11:26:48.961Z,37.53
2023-04-20T11:29:27.186Z,37.69
2023-04-20T11:31:52.918Z,37.31
2023-04-20T11:34:18.713Z,37.42
2023-04-20T11:36:45.404Z,37.35
2023-04-20T11:39:13.106Z,36.92
2023-04-20T11:41:38.762Z,37.04
2023-04-20T11:44:06.069Z,36.62
2023-04-20T11:46:34.735Z,36.97
2023-04-20T11:49:01.384Z,37.18
2023-04-20T11:51:27.457Z,37.02
2023-04-20T11:53:53.615Z,37.19
2023-04-20T11:56:19.260Z,37.00
2023-04-20T11:58:44.922Z,38.09
2023-04-20T12:01:10.592Z,37.40
2023-04-20T12:03:36.788Z,37.50
2023-04-20T12:06:02.603Z,37.90
2023-04-20T12:08:28.308Z,37.97
2023-04-20T12:10:54.739Z,37.83
2023-04-20T12:13:21.705Z,37.89
2023-04-20T12:15:47.459Z,37.72
2023-04-20T12:18:13.168Z,38.02
2023-04-20T12:20:38.927Z,37.73
2023-04-20T12:23:04.637Z,37.84
2023-04-20T12:25:30.318Z,37.36
2023-04-20T12:27:56.085Z,37.96
2023-04-20T12:30:22.271Z,37.53
2023-04-20T12:32:47.987Z,37.74
2023-04-20T12:35:13.668Z,37.41
2023-04-20T12:37:39.398Z,37.88
2023-04-20T12:40:06.441Z,37.76
2023-04-20T12:42:32.163Z,37.26
2023-04-20T12:44:57.859Z,37.10
2023-04-20T12:47:23.546Z,37.02
2023-04-20T12:49:49.219Z,37.18
2023-04-20T12:52:14.922Z,36.78
2023-04-20T12:54:42.722Z,37.04
2023-04-20T12:57:10.044Z,36.77
2023-04-20T12:59:35.727Z,36.85
2023-04-20T13:02:01.408Z,36.46
2023-04-20T13:04:27.234Z,37.15
2023-04-20T13:06:53.045Z,37.28
2023-04-20T13:09:18.703Z,36.26
2023-04-20T13:11:44.425Z,36.47
2023-04-20T13:14:10.126Z,36.03
2023-04-20T13:16:35.933Z,37.27
2023-04-20T13:19:02.296Z,35.50
2023-04-20T13:21:27.951Z,35.95
2023-04-20T13:23:54.776Z,35.80
2023-04-20T13:26:21.885Z,35.60
2023-04-20T13:28:47.533Z,35.34
2023-04-20T13:31:13.260Z,35.65
2023-04-20T13:33:38.973Z,35.70
2023-04-20T13:36:04.724Z,36.46
2023-04-20T13:38:30.381Z,36.16
2023-04-20T13:40:56.047Z,35.80
2023-04-20T13:43:21.912Z,35.90
2023-04-20T13:45:47.616Z,35.21
2023-04-20T13:48:13.291Z,36.05
2023-04-20T13:50:38.955Z,35.87
2023-04-20T13:53:04.954Z,35.60
2023-04-20T13:55:30.699Z,35.31
2023-04-20T13:57:56.343Z,36.24
2023-04-20T14:00:23.030Z,35.65
2023-04-20T14:02:48.852Z,35.24
2023-04-20T14:05:14.625Z,35.75
2023-04-20T14:07:40.275Z,35.77
2023-04-20T14:10:06.616Z,35.98
2023-04-20T14:12:33.027Z,35.55
2023-04-20T14:14:59.361Z,35.48
2023-04-20T14:17:25.698Z,35.40
2023-04-20T14:19:51.647Z,35.49
2023-04-20T14:22:17.341Z,35.42
2023-04-20T14:24:44.668Z,35.40
2023-04-20T14:27:10.833Z,35.62
2023-04-20T14:29:36.517Z,35.87
2023-04-20T14:32:02.193Z,36.38
2023-04-20T14:34:27.833Z,35.51
2023-04-20T14:36:53.464Z,35.58
2023-04-20T14:39:20.055Z,34.18
2023-04-20T14:41:45.739Z,34.52
2023-04-20T14:44:11.390Z,35.34
2023-04-20T14:46:40.156Z,35.34
2023-04-20T14:49:07.720Z,35.20
2023-04-20T14:51:33.376Z,35.51
2023-04-20T14:53:59.023Z,35.14
2023-04-20T14:56:24.670Z,34.86
2023-04-20T14:58:50.509Z,34.97
2023-04-20T15:01:16.358Z,34.82
2023-04-20T15:03:42.675Z,35.87
2023-04-20T15:06:08.650Z,35.00
2023-04-20T15:08:34.901Z,35.48
2023-04-20T15:11:01.201Z,35.32
2023-04-20T15:13:26.861Z,35.27
2023-04-20T15:15:54.754Z,35.04
2023-04-20T15:18:20.995Z,35.29
2023-04-20T15:20:46.686Z,35.35
2023-04-20T15:23:12.339Z,35.27
2023-04-20T15:25:38.132Z,35.13
2023-04-20T15:28:03.883Z,35.04
2023-04-20T15:30:29.749Z,34.89
2023-04-20T15:32:55.728Z,34.79
2023-04-20T15:35:30.475Z,35.12
2023-04-20T15:37:57.097Z,41.05
2023-04-20T15:40:22.796Z,43.27
2023-04-20T15:42:48.672Z,45.65
2023-04-20T15:45:14.484Z,40.58
2023-04-20T15:47:40.180Z,39.63
2023-04-20T15:50:06.336Z,39.91
2023-04-20T15:52:31.989Z,39.22
2023-04-20T15:54:57.858Z,42.82
2023-04-20T15:57:23.514Z,40.36
2023-04-20T15:59:49.162Z,42.66
2023-04-20T16:02:14.879Z,43.70
2023-04-20T16:04:40.762Z,41.15
2023-04-20T16:07:08.021Z,40.89
2023-04-20T16:09:33.732Z,40.14
2023-04-20T16:12:00.529Z,40.30
2023-04-20T16:14:26.182Z,43.72
2023-04-20T16:16:51.826Z,42.60
2023-04-20T16:19:17.481Z,42.84
2023-04-20T16:21:43.126Z,41.95
2023-04-20T16:24:08.803Z,42.43
2023-04-20T16:26:34.450Z,42.10
2023-04-20T16:29:00.414Z,42.31
2023-04-20T16:31:26.217Z,42.09
2023-04-20T16:33:51.957Z,42.46
2023-04-20T16:36:17.597Z,41.46
2023-04-20T16:38:43.264Z,42.04
2023-04-20T16:41:09.060Z,39.75
2023-04-20T16:43:34.919Z,42.41
2023-04-20T16:46:00.793Z,42.68
2023-04-20T16:48:26.473Z,42.42
2023-04-20T16:50:52.256Z,42.06
2023-04-20T16:53:17.923Z,40.81
2023-04-20T16:55:43.705Z,40.33
2023-04-20T16:58:09.353Z,41.55
2023-04-20T17:00:35.619Z,40.71
2023-04-20T17:03:05.397Z,42.22
2023-04-20T17:05:31.212Z,41.20
2023-04-20T17:07:56.844Z,42.17
2023-04-20T17:10:22.537Z,41.72
2023-04-20T17:12:48.745Z,41.84
2023-04-20T17:15:14.817Z,41.90
2023-04-20T17:17:40.564Z,40.51
2023-04-20T17:20:07.009Z,41.10
2023-04-20T17:22:33.164Z,41.63
2023-04-20T17:24:59.323Z,41.55
2023-04-20T17:27:25.071Z,40.83
2023-04-20T17:29:50.863Z,41.98
2023-04-20T17:32:16.579Z,41.89
2023-04-20T17:34:47.438Z,41.70
2023-04-20T17:37:14.091Z,41.50
2023-04-20T17:39:39.818Z,41.94
2023-04-20T17:42:05.448Z,40.78
2023-04-20T17:44:31.093Z,41.70
2023-04-20T17:46:58.411Z,41.64
2023-04-20T17:49:24.223Z,40.85
2023-04-20T17:51:50.112Z,41.60
2023-04-20T17:54:16.022Z,41.00
2023-04-20T17:56:42.346Z,40.88
2023-04-20T17:59:08.463Z,41.64
2023-04-20T18:01:35.005Z,41.18
2023-04-20T18:04:01.797Z,40.70
2023-04-20T18:06:29.129Z,40.81
2023-04-20T18:08:56.078Z,40.24
2023-04-20T18:11:22.099Z,41.10
2023-04-20T18:13:47.814Z,40.48
2023-04-20T18:16:13.601Z,41.08
2023-04-20T18:18:39.547Z,40.43
2023-04-20T18:21:05.232Z,40.19
2023-04-20T18:23:31.023Z,40.89
2023-04-20T18:25:56.676Z,40.77
2023-04-20T18:28:22.570Z,41.00
2023-04-20T18:30:48.234Z,40.76
2023-04-20T18:33:14.826Z,40.99
2023-04-20T18:35:42.155Z,41.30
2023-04-20T18:38:07.808Z,40.67
2023-04-20T18:40:33.475Z,40.77
2023-04-20T18:42:59.117Z,40.97
2023-04-20T18:45:24.806Z,40.85
2023-04-20T18:47:50.464Z,40.36
2023-04-20T18:50:16.132Z,41.06
2023-04-20T18:52:41.893Z,40.79
2023-04-20T18:55:08.367Z,41.01
2023-04-20T18:57:34.080Z,40.72
2023-04-20T18:59:59.765Z,40.75
2023-04-20T19:02:25.653Z,40.97
2023-04-20T19:04:51.527Z,41.05
2023-04-20T19:07:17.475Z,40.80
2023-04-20T19:09:43.297Z,40.56
2023-04-20T19:12:08.978Z,40.86
2023-04-20T19:14:34.662Z,41.34
2023-04-20T19:17:03.093Z,41.08
2023-04-20T19:19:28.768Z,41.31
2023-04-20T19:21:54.406Z,41.22
2023-04-20T19:24:20.227Z,41.32
2023-04-20T19:26:46.048Z,41.19
2023-04-20T19:29:11.847Z,40.99
2023-04-20T19:31:39.300Z,40.79
2023-04-20T19:34:06.279Z,40.97
2023-04-20T19:36:33.431Z,40.99
2023-04-20T19:38:59.092Z,40.94
2023-04-20T19:41:26.120Z,40.91
2023-04-20T19:43:52.202Z,40.79
2023-04-20T19:46:17.910Z,40.95
2023-04-20T19:48:43.748Z,41.00
2023-04-20T19:51:10.793Z,41.00
2023-04-20T19:53:36.999Z,40.79
2023-04-20T19:56:05.689Z,40.99
2023-04-20T19:58:32.226Z,40.99
2023-04-20T20:00:58.715Z,41.00
2023-04-20T20:03:24.489Z,40.42
2023-04-20T20:05:50.190Z,40.90
2023-04-20T20:08:16.047Z,40.97
2023-04-20T20:10:41.768Z,40.92
2023-04-20T20:13:07.449Z,40.99
2023-04-20T20:15:33.196Z,40.82
2023-04-20T20:17:58.978Z,40.99
2023-04-20T20:20:29.416Z,40.94
2023-04-20T20:22:55.846Z,40.83
2023-04-20T20:25:21.605Z,40.91
2023-04-20T20:27:47.765Z,40.73
2023-04-20T20:30:14.167Z,40.77
2023-04-20T20:32:40.387Z,41.34
2023-04-20T20:35:08.588Z,40.94
2023-04-20T20:37:35.819Z,40.81
2023-04-20T20:40:09.598Z,40.64
2023-04-20T20:42:37.588Z,40.76
2023-04-20T20:45:05.969Z,40.73
2023-04-20T20:47:32.403Z,40.69
2023-04-20T20:49:58.070Z,40.55
2023-04-20T20:52:23.763Z,40.52
2023-04-20T20:54:49.927Z,40.71
2023-04-20T20:57:15.623Z,40.75
2023-04-20T20:59:41.274Z,40.65
2023-04-20T21:02:06.985Z,40.57
2023-04-20T21:04:32.704Z,40.83
2023-04-20T21:06:58.372Z,40.93
2023-04-20T21:09:24.041Z,40.69
2023-04-20T21:11:49.910Z,40.39
2023-04-20T21:14:15.553Z,40.65
2023-04-20T21:16:41.225Z,40.58
2023-04-20T21:19:06.959Z,40.71
2023-04-20T21:21:33.239Z,40.66
2023-04-20T21:23:59.018Z,40.73
2023-04-20T21:26:24.646Z,40.94
2023-04-20T21:28:50.295Z,41.10
2023-04-20T21:31:15.940Z,40.87
2023-04-20T21:33:41.583Z,40.78
2023-04-20T21:36:07.386Z,40.75
2023-04-20T21:38:33.063Z,40.75
2023-04-20T21:40:58.699Z,40.50
2023-04-20T21:43:24.366Z,40.56
2023-04-20T21:45:50.727Z,40.73
2023-04-20T21:48:16.898Z,40.82
2023-04-20T21:50:42.562Z,40.83
2023-04-20T21:53:08.199Z,40.83
2023-04-20T21:55:34.008Z,40.46
2023-04-20T21:57:59.678Z,40.54
2023-04-20T22:00:25.329Z,40.52
2023-04-20T22:02:51.109Z,40.57
2023-04-20T22:05:16.911Z,40.62
2023-04-20T22:07:42.549Z,40.72
2023-04-20T22:10:08.666Z,40.45
2023-04-20T22:12:39.978Z,40.55
2023-04-20T22:15:08.725Z,40.81
2023-04-20T22:17:34.486Z,40.36
2023-04-20T22:20:00.243Z,40.51
2023-04-20T22:22:25.929Z,40.66
2023-04-20T22:24:51.592Z,40.45
2023-04-20T22:27:17.248Z,40.70
2023-04-20T22:29:42.904Z,40.50
2023-04-20T22:32:08.535Z,40.52
2023-04-20T22:34:34.183Z,40.78
2023-04-20T22:36:59.819Z,40.26
2023-04-20T22:39:25.538Z,40.61
2023-04-20T22:41:51.175Z,40.40
2023-04-20T22:44:16.839Z,40.72
2023-04-20T22:46:42.540Z,40.45
2023-04-20T22:49:08.254Z,40.48
2023-04-20T22:51:33.928Z,40.64
2023-04-20T22:54:01.633Z,40.36
2023-04-20T22:56:28.578Z,40.55
2023-04-20T22:58:54.279Z,40.50
2023-04-20T23:01:19.927Z,40.59
2023-04-20T23:03:45.758Z,40.58
2023-04-20T23:06:11.506Z,40.70
2023-04-20T23:08:38.994Z,40.46
2023-04-20T23:11:04.652Z,40.76
2023-04-20T23:13:32.358Z,40.67
2023-04-20T23:15:58.046Z,40.38
2023-04-20T23:18:23.753Z,40.33
2023-04-20T23:20:49.741Z,40.80
2023-04-20T23:23:15.395Z,40.28
2023-04-20T23:25:41.068Z,40.35
2023-04-20T23:28:06.711Z,40.37
2023-04-20T23:30:32.384Z,40.32
2023-04-20T23:32:58.066Z,40.64
2023-04-20T23:35:23.734Z,40.31
2023-04-20T23:37:49.420Z,40.65
2023-04-20T23:40:15.114Z,40.40
2023-04-20T23:42:40.783Z,40.47
2023-04-20T23:45:07.365Z,40.34
2023-04-20T23:47:33.046Z,40.63
2023-04-20T23:49:58.691Z,40.71
2023-04-20T23:52:24.368Z,40.28
2023-04-20T23:54:50.046Z,40.19
2023-04-20T23:57:15.698Z,40.31
2023-04-20T23:59:41.352Z,40.31
